Time;durP1;ratioP1;P1;durP2;ratioP2;P2;SDS_P1;SDS_P2;PMS_P1;PMS_P2;Temp;Humidity;BMP_temperature;BMP_pressure;BME280_temperature;BME280_humidity;BME280_pressure;Samples;Min_cycle;Max_cycle;Signal;HPM_P1;HPM_P2
2022/04/10 00:00:19;;;;;;;3.87;1.87;;;6.70;99.90;;;;;;4954632;29;20219;-69
2022/04/10 00:02:47;;;;;;;1.97;1.37;;;6.70;99.90;;;;;;4954785;29;20239;-69
2022/04/10 00:05:14;;;;;;;2.70;1.30;;;6.80;99.90;;;;;;4954864;29;20224;-71
2022/04/10 00:07:41;;;;;;;4.90;1.60;;;6.80;99.90;;;;;;4954647;29;20212;-70
2022/04/10 00:10:08;;;;;;;2.00;1.30;;;6.90;99.90;;;;;;4954673;29;20674;-67
2022/04/10 00:12:35;;;;;;;2.13;1.33;;;6.90;99.90;;;;;;4954374;29;20731;-69
2022/04/10 00:15:02;;;;;;;3.43;1.53;;;7.00;99.90;;;;;;4953919;28;20212;-69
2022/04/10 00:17:29;;;;;;;1.50;1.10;;;7.10;99.90;;;;;;4954592;29;20263;-69
2022/04/10 00:19:57;;;;;;;1.57;1.10;;;7.10;99.90;;;;;;4954505;29;20669;-67
2022/04/10 00:22:25;;;;;;;2.50;1.30;;;7.10;99.90;;;;;;4954136;29;20231;-68
2022/04/10 00:24:52;;;;;;;6.40;1.50;;;7.10;99.90;;;;;;4953526;28;20207;-67
2022/04/10 00:27:18;;;;;;;3.27;1.37;;;7.10;99.90;;;;;;4954381;29;20214;-69
2022/04/10 00:29:46;;;;;;;1.53;1.27;;;7.10;99.90;;;;;;4954154;29;20208;-69
2022/04/10 00:32:12;;;;;;;2.20;1.40;;;7.00;99.90;;;;;;4954262;28;20271;-67
2022/04/10 00:34:39;;;;;;;2.10;1.40;;;7.00;99.90;;;;;;4954415;29;20295;-68
2022/04/10 00:37:08;;;;;;;2.27;1.37;;;7.10;99.90;;;;;;4953991;29;20208;-70
2022/04/10 00:39:34;;;;;;;4.13;1.27;;;7.20;99.90;;;;;;4954023;28;20573;-69
2022/04/10 00:42:01;;;;;;;2.03;1.00;;;7.20;99.90;;;;;;4953393;28;20224;-68
2022/04/10 00:44:28;;;;;;;2.47;1.27;;;7.20;99.90;;;;;;4953787;29;20689;-70
2022/04/10 00:46:55;;;;;;;1.60;1.20;;;7.20;99.90;;;;;;4953760;29;20839;-68
2022/04/10 00:49:21;;;;;;;3.10;1.23;;;7.20;99.90;;;;;;4953957;29;20214;-69
2022/04/10 00:51:52;;;;;;;1.77;1.17;;;7.20;99.90;;;;;;4954049;29;20235;-68
2022/04/10 00:54:24;;;;;;;3.23;1.10;;;7.20;99.90;;;;;;4953653;29;20299;-70
2022/04/10 00:56:52;;;;;;;6.23;1.57;;;7.20;99.90;;;;;;4953433;28;20203;-70
2022/04/10 00:59:19;;;;;;;2.43;1.53;;;7.20;99.90;;;;;;4953562;29;20216;-71
2022/04/10 01:01:46;;;;;;;5.17;1.27;;;7.10;99.90;;;;;;4953722;29;20266;-71
2022/04/10 01:04:13;;;;;;;2.23;1.27;;;6.90;99.90;;;;;;4954071;28;20570;-67
2022/04/10 01:06:41;;;;;;;1.67;1.17;;;6.80;99.90;;;;;;4954168;29;20231;-67
2022/04/10 01:09:08;;;;;;;3.80;1.20;;;6.70;99.90;;;;;;4954014;29;20215;-70
2022/04/10 01:11:37;;;;;;;2.90;1.27;;;6.70;99.90;;;;;;4934478;29;20228;-67
2022/04/10 01:14:05;;;;;;;2.13;1.40;;;6.80;99.90;;;;;;4941171;29;20240;-68
2022/04/10 01:16:32;;;;;;;2.20;1.40;;;6.80;99.90;;;;;;4953661;29;20290;-67
2022/04/10 01:19:03;;;;;;;3.30;1.30;;;6.70;99.90;;;;;;4953575;29;20208;-70
2022/04/10 01:21:33;;;;;;;2.63;1.63;;;6.60;99.90;;;;;;4953073;29;20713;-67
2022/04/10 01:24:02;;;;;;;1.70;1.10;;;6.70;99.90;;;;;;4952183;29;20236;-67
2022/04/10 01:26:29;;;;;;;3.10;1.40;;;6.70;99.90;;;;;;4951316;28;20211;-67
2022/04/10 01:29:00;;;;;;;3.73;1.50;;;6.60;99.90;;;;;;4952911;29;20243;-69
2022/04/10 01:31:29;;;;;;;1.70;1.20;;;6.60;99.90;;;;;;4953446;29;20989;-70
2022/04/10 01:33:58;;;;;;;2.73;1.47;;;6.70;99.90;;;;;;4953265;29;20208;-70
2022/04/10 01:36:27;;;;;;;2.37;1.40;;;6.60;99.90;;;;;;4953639;29;20307;-70
2022/04/10 01:38:54;;;;;;;2.17;1.20;;;6.60;99.90;;;;;;4953498;29;20204;-69
2022/04/10 01:41:24;;;;;;;3.20;1.30;;;6.50;99.90;;;;;;4953405;29;20236;-68
2022/04/10 01:43:51;;;;;;;2.20;1.60;;;6.40;99.90;;;;;;4953264;29;20640;-71
2022/04/10 01:46:18;;;;;;;3.27;1.60;;;6.30;99.90;;;;;;4954676;29;20208;-69
2022/04/10 01:48:45;;;;;;;3.73;1.40;;;6.20;99.90;;;;;;4953701;29;20212;-70
2022/04/10 01:51:12;;;;;;;2.43;1.30;;;6.20;99.90;;;;;;4952845;29;20243;-71
2022/04/10 01:53:40;;;;;;;2.83;1.23;;;6.30;99.90;;;;;;4953241;29;20220;-73
2022/04/10 01:56:07;;;;;;;3.90;1.47;;;6.20;99.90;;;;;;4953099;29;20568;-69
2022/04/10 01:58:38;;;;;;;5.20;1.27;;;6.20;99.90;;;;;;4952706;29;20220;-71
2022/04/10 02:01:06;;;;;;;2.47;1.40;;;6.10;99.90;;;;;;4952886;29;20709;-73
2022/04/10 02:03:33;;;;;;;2.70;1.40;;;6.10;99.90;;;;;;4953488;29;20227;-69
2022/04/10 02:06:01;;;;;;;3.90;1.50;;;6.00;99.90;;;;;;4953321;29;20780;-70
2022/04/10 02:08:28;;;;;;;2.83;1.53;;;5.90;99.90;;;;;;4953456;28;20777;-71
2022/04/10 02:10:55;;;;;;;3.53;1.87;;;5.80;99.90;;;;;;4953307;29;20551;-70
2022/04/10 02:13:22;;;;;;;2.03;1.40;;;5.70;99.90;;;;;;4953433;29;20212;-71
2022/04/10 02:15:51;;;;;;;2.37;1.40;;;5.60;99.90;;;;;;4953402;29;20219;-67
2022/04/10 02:18:18;;;;;;;2.53;1.47;;;5.50;99.90;;;;;;4953483;29;20212;-70
2022/04/10 02:20:45;;;;;;;1.87;1.40;;;5.40;99.90;;;;;;4952795;29;20208;-70
2022/04/10 02:23:12;;;;;;;5.50;1.70;;;5.30;99.90;;;;;;4952123;29;20228;-68
2022/04/10 02:25:39;;;;;;;2.80;1.47;;;5.20;99.90;;;;;;4952545;29;20200;-70
2022/04/10 02:28:06;;;;;;;4.00;1.57;;;5.20;99.90;;;;;;4953051;29;20208;-70
2022/04/10 02:30:32;;;;;;;2.67;1.57;;;5.10;99.90;;;;;;4952787;29;20212;-67
2022/04/10 02:33:01;;;;;;;3.60;1.53;;;5.00;99.90;;;;;;4952631;29;20731;-71
2022/04/10 02:35:28;;;;;;;3.90;1.60;;;4.90;99.90;;;;;;4952998;29;20211;-70
2022/04/10 02:37:54;;;;;;;2.47;1.67;;;4.90;99.90;;;;;;4952725;28;20210;-68
2022/04/10 02:40:21;;;;;;;3.27;1.90;;;4.80;99.90;;;;;;4956691;28;20208;-72
2022/04/10 02:42:48;;;;;;;6.43;1.87;;;4.80;99.90;;;;;;4956713;28;20232;-67
2022/04/10 02:45:15;;;;;;;4.63;1.80;;;4.70;99.90;;;;;;4956603;28;20247;-71
2022/04/10 02:47:42;;;;;;;2.27;1.43;;;4.70;99.90;;;;;;4956364;28;20207;-71
2022/04/10 02:50:10;;;;;;;3.30;1.77;;;4.70;99.90;;;;;;4956217;28;20239;-68
2022/04/10 02:52:37;;;;;;;3.67;1.90;;;4.60;99.90;;;;;;4956131;28;20235;-67
2022/04/10 02:55:04;;;;;;;2.13;1.40;;;4.60;99.90;;;;;;4956223;28;20227;-70
2022/04/10 02:57:31;;;;;;;3.63;1.70;;;4.50;99.90;;;;;;4956149;28;20212;-70
2022/04/10 02:59:58;;;;;;;2.53;1.60;;;4.50;99.90;;;;;;4955522;28;20216;-70
2022/04/10 03:02:25;;;;;;;2.27;1.50;;;4.40;99.90;;;;;;4956236;29;20243;-70
2022/04/10 03:04:51;;;;;;;2.47;1.40;;;4.30;99.90;;;;;;4955381;29;20238;-71
2022/04/10 03:07:19;;;;;;;3.57;1.77;;;4.30;99.90;;;;;;4956215;29;20208;-73
2022/04/10 03:09:47;;;;;;;3.20;1.60;;;4.20;99.90;;;;;;4956304;29;20208;-69
2022/04/10 03:12:14;;;;;;;2.17;1.57;;;4.10;99.90;;;;;;4955895;29;20721;-71
2022/04/10 03:14:41;;;;;;;3.97;1.57;;;4.20;99.90;;;;;;4955906;28;20204;-67
2022/04/10 03:17:08;;;;;;;3.17;1.60;;;4.20;99.90;;;;;;4955199;29;20204;-70
2022/04/10 03:19:35;;;;;;;3.10;1.43;;;4.10;99.90;;;;;;4955711;29;20215;-68
2022/04/10 03:22:01;;;;;;;2.40;1.60;;;4.00;99.90;;;;;;4955599;29;20236;-68
2022/04/10 03:24:30;;;;;;;4.37;1.63;;;4.00;99.90;;;;;;4954898;29;20240;-67
2022/04/10 03:26:56;;;;;;;2.70;1.60;;;4.10;99.90;;;;;;4954916;29;20215;-71
2022/04/10 03:29:23;;;;;;;3.30;2.07;;;4.00;99.90;;;;;;4955298;29;20214;-70
2022/04/10 03:31:50;;;;;;;6.77;1.70;;;4.10;99.90;;;;;;4955557;29;20232;-73
2022/04/10 03:34:17;;;;;;;3.20;2.00;;;4.10;99.90;;;;;;4955193;29;20208;-70
2022/04/10 03:36:44;;;;;;;4.07;1.87;;;4.20;99.90;;;;;;4955309;29;20218;-68
2022/04/10 03:39:10;;;;;;;3.00;1.80;;;4.00;99.90;;;;;;4955560;28;20204;-71
2022/04/10 03:41:39;;;;;;;6.07;2.00;;;3.90;99.90;;;;;;4954993;28;20230;-67
2022/04/10 03:44:06;;;;;;;4.17;2.03;;;3.80;99.90;;;;;;4954932;29;20236;-71
2022/04/10 03:46:33;;;;;;;4.03;1.73;;;3.80;99.90;;;;;;4954847;29;20208;-71
2022/04/10 03:49:00;;;;;;;4.63;1.97;;;3.80;99.90;;;;;;4955070;29;20210;-71
2022/04/10 03:51:27;;;;;;;3.77;1.57;;;3.70;99.90;;;;;;4954001;28;20232;-71
2022/04/10 03:53:54;;;;;;;3.33;1.63;;;3.70;99.90;;;;;;4954588;29;20208;-71
2022/04/10 03:56:20;;;;;;;3.00;1.60;;;3.70;99.90;;;;;;4955295;29;20214;-71
2022/04/10 03:58:49;;;;;;;6.37;2.47;;;3.70;99.90;;;;;;4954474;29;20218;-71
2022/04/10 04:01:15;;;;;;;5.73;1.93;;;3.80;99.90;;;;;;4954814;29;20232;-70
2022/04/10 04:03:42;;;;;;;2.63;1.50;;;3.70;99.90;;;;;;4955033;29;20232;-71
2022/04/10 04:06:09;;;;;;;4.57;1.70;;;3.60;99.90;;;;;;4955063;29;20208;-70
2022/04/10 04:08:36;;;;;;;5.57;2.03;;;3.60;99.90;;;;;;4955141;29;20208;-68
2022/04/10 04:11:02;;;;;;;1.90;1.23;;;3.50;99.90;;;;;;4954898;29;20240;-71
2022/04/10 04:13:29;;;;;;;3.10;1.77;;;3.50;99.90;;;;;;4955030;29;20222;-71
2022/04/10 04:15:57;;;;;;;2.27;1.40;;;3.50;99.90;;;;;;4954274;29;20208;-71
2022/04/10 04:18:24;;;;;;;2.27;1.40;;;3.50;99.90;;;;;;4954507;29;20314;-72
2022/04/10 04:20:51;;;;;;;3.70;1.60;;;3.50;99.90;;;;;;4954335;29;20299;-67
2022/04/10 04:23:19;;;;;;;3.07;1.50;;;3.50;99.90;;;;;;4954477;29;20212;-70
2022/04/10 04:25:46;;;;;;;4.10;1.50;;;3.40;99.90;;;;;;4953097;29;20240;-69
2022/04/10 04:28:13;;;;;;;3.20;1.77;;;3.40;99.90;;;;;;4954332;29;20211;-69
2022/04/10 04:30:40;;;;;;;8.97;1.87;;;3.30;99.90;;;;;;4954390;29;20212;-71
2022/04/10 04:33:08;;;;;;;4.83;2.47;;;3.20;99.90;;;;;;4954603;29;20208;-70
2022/04/10 04:35:35;;;;;;;3.67;1.63;;;3.10;99.90;;;;;;4954059;29;20665;-69
2022/04/10 04:38:02;;;;;;;6.83;2.00;;;3.00;99.90;;;;;;4954249;29;20223;-71
2022/04/10 04:40:29;;;;;;;4.20;1.93;;;3.00;99.90;;;;;;4954494;28;20212;-71
2022/04/10 04:42:55;;;;;;;5.20;2.07;;;3.10;99.90;;;;;;4954690;28;20228;-71
2022/04/10 04:45:23;;;;;;;7.10;2.93;;;3.10;99.90;;;;;;4953866;28;20239;-71
2022/04/10 04:47:50;;;;;;;6.37;2.40;;;3.10;99.90;;;;;;4954310;29;20609;-69
2022/04/10 04:50:18;;;;;;;4.37;2.20;;;3.10;99.90;;;;;;4954408;29;20208;-70
2022/04/10 04:52:44;;;;;;;4.30;2.10;;;3.20;99.90;;;;;;4954251;29;20228;-70
2022/04/10 04:55:11;;;;;;;6.33;2.10;;;3.10;99.90;;;;;;4953841;29;20212;-71
2022/04/10 04:57:38;;;;;;;5.73;2.20;;;3.20;99.90;;;;;;4953959;29;20212;-71
2022/04/10 05:00:06;;;;;;;4.10;2.20;;;3.20;99.90;;;;;;4954148;29;20226;-71
2022/04/10 05:02:33;;;;;;;4.80;2.30;;;3.10;99.90;;;;;;4952982;28;20283;-68
2022/04/10 05:05:00;;;;;;;6.37;2.70;;;3.20;99.90;;;;;;4953882;29;20326;-71
2022/04/10 05:07:28;;;;;;;8.53;2.73;;;3.20;99.90;;;;;;4954313;29;20212;-71
2022/04/10 05:09:55;;;;;;;6.83;2.50;;;3.20;99.90;;;;;;4954061;29;20212;-72
2022/04/10 05:12:21;;;;;;;5.57;2.10;;;3.20;99.90;;;;;;4953984;29;20239;-70
2022/04/10 05:14:48;;;;;;;5.20;2.87;;;3.30;99.90;;;;;;4954135;29;20215;-71
2022/04/10 05:17:15;;;;;;;2.97;1.97;;;3.30;99.90;;;;;;4954057;29;20208;-72
2022/04/10 05:19:42;;;;;;;6.17;2.50;;;3.40;99.90;;;;;;4952946;29;20681;-71
2022/04/10 05:22:09;;;;;;;5.47;2.47;;;3.50;99.90;;;;;;4952998;29;20755;-71
2022/04/10 05:24:37;;;;;;;2.90;1.90;;;3.60;99.90;;;;;;4953300;29;20232;-71
2022/04/10 05:27:04;;;;;;;5.50;2.53;;;3.70;99.90;;;;;;4952696;29;20216;-69
2022/04/10 05:29:31;;;;;;;8.97;2.37;;;3.80;99.90;;;;;;4953727;29;20208;-71
2022/04/10 05:31:58;;;;;;;5.67;2.00;;;3.90;99.90;;;;;;4953692;29;20228;-68
2022/04/10 05:34:24;;;;;;;4.70;2.27;;;4.10;99.90;;;;;;4953576;29;20270;-68
2022/04/10 05:36:51;;;;;;;9.03;3.00;;;4.30;99.90;;;;;;4953601;29;20303;-71
2022/04/10 05:39:18;;;;;;;8.63;2.30;;;4.30;99.90;;;;;;4953368;29;20208;-68
2022/04/10 05:41:46;;;;;;;5.33;2.33;;;4.40;99.90;;;;;;4953485;28;20247;-72
2022/04/10 05:44:13;;;;;;;6.20;2.80;;;4.60;99.90;;;;;;4953051;28;20216;-70
2022/04/10 05:46:40;;;;;;;6.00;2.73;;;4.80;99.90;;;;;;4953190;29;20215;-71
2022/04/10 05:49:06;;;;;;;6.87;2.70;;;5.00;99.90;;;;;;4953128;29;20212;-71
2022/04/10 05:51:33;;;;;;;5.43;2.70;;;5.20;99.90;;;;;;4952919;29;20240;-69
2022/04/10 05:54:00;;;;;;;5.17;2.63;;;5.40;99.90;;;;;;4953390;29;20208;-71
2022/04/10 05:56:27;;;;;;;5.23;2.83;;;5.70;99.90;;;;;;4953615;29;20219;-71
2022/04/10 05:58:55;;;;;;;6.00;2.67;;;6.20;99.90;;;;;;4952851;29;20219;-71
2022/04/10 06:01:23;;;;;;;9.10;2.87;;;7.00;99.90;;;;;;4953123;29;20609;-70
2022/04/10 06:03:50;;;;;;;7.47;2.33;;;7.70;99.90;;;;;;4953183;29;20215;-71
2022/04/10 06:06:18;;;;;;;4.90;2.73;;;8.20;99.90;;;;;;4953201;29;20243;-70
2022/04/10 06:08:45;;;;;;;19.87;7.73;;;8.50;99.90;;;;;;4936935;29;20255;-69
2022/04/10 06:11:12;;;;;;;5.47;2.20;;;8.60;99.90;;;;;;4934170;29;20233;-70
2022/04/10 06:13:38;;;;;;;3.67;2.20;;;8.60;99.90;;;;;;4935179;29;20223;-68
2022/04/10 06:16:07;;;;;;;5.00;2.23;;;8.60;99.90;;;;;;4956795;29;20212;-70
2022/04/10 06:18:34;;;;;;;7.40;2.53;;;8.40;99.90;;;;;;4956627;28;20207;-71
2022/04/10 06:21:00;;;;;;;9.17;2.03;;;8.30;99.90;;;;;;4956677;29;20228;-71
2022/04/10 06:23:27;;;;;;;8.10;2.80;;;8.40;99.90;;;;;;4955164;29;20211;-70
2022/04/10 06:25:54;;;;;;;5.00;2.20;;;8.10;99.90;;;;;;4939087;29;20228;-70
2022/04/10 06:28:21;;;;;;;8.90;2.27;;;8.30;99.90;;;;;;4937448;29;20217;-71
2022/04/10 06:30:48;;;;;;;6.60;2.20;;;8.60;99.90;;;;;;4937555;29;20208;-70
2022/04/10 06:33:16;;;;;;;4.43;2.23;;;9.20;99.90;;;;;;4950138;29;20204;-71
2022/04/10 06:35:42;;;;;;;3.47;2.00;;;9.90;99.90;;;;;;4956166;29;20554;-70
2022/04/10 06:38:09;;;;;;;4.73;1.80;;;10.60;99.90;;;;;;4956087;29;20240;-70
2022/04/10 06:40:36;;;;;;;5.70;2.43;;;11.00;99.90;;;;;;4955853;28;20214;-69
2022/04/10 06:43:07;;;;;;;5.70;1.80;;;11.00;99.90;;;;;;4954942;28;20641;-70
2022/04/10 06:45:34;;;;;;;5.70;2.17;;;10.70;99.90;;;;;;4949074;29;20231;-69
2022/04/10 06:48:02;;;;;;;4.17;2.10;;;10.70;99.90;;;;;;4936539;29;20209;-70
2022/04/10 06:50:30;;;;;;;7.20;2.20;;;10.70;99.90;;;;;;4936292;29;20631;-71
2022/04/10 06:52:57;;;;;;;3.57;1.90;;;11.10;99.90;;;;;;4937134;29;20285;-71
2022/04/10 06:55:24;;;;;;;5.03;2.20;;;11.20;99.90;;;;;;4937273;29;20223;-70
2022/04/10 06:57:50;;;;;;;5.30;2.20;;;11.00;99.90;;;;;;4938412;29;20215;-70
2022/04/10 07:00:18;;;;;;;6.20;1.73;;;10.90;99.90;;;;;;4944015;29;20227;-70
2022/04/10 07:02:44;;;;;;;7.03;2.13;;;11.00;99.90;;;;;;4945852;29;20224;-70
2022/04/10 07:05:11;;;;;;;4.77;2.53;;;11.30;99.90;;;;;;4945420;29;20242;-71
2022/04/10 07:07:40;;;;;;;4.80;2.07;;;11.80;99.90;;;;;;4945933;29;20204;-69
2022/04/10 07:10:07;;;;;;;6.80;1.73;;;11.60;99.90;;;;;;4944341;29;20211;-71
2022/04/10 07:12:34;;;;;;;4.73;2.10;;;11.70;99.90;;;;;;4938939;29;20229;-70
2022/04/10 07:15:02;;;;;;;4.20;1.80;;;11.30;99.90;;;;;;4936601;29;20217;-70
2022/04/10 07:17:29;;;;;;;3.77;2.10;;;12.20;99.90;;;;;;4945728;29;20608;-71
2022/04/10 07:19:56;;;;;;;6.93;2.10;;;12.90;99.90;;;;;;4942749;29;20209;-70
2022/04/10 07:25:09;;;;;;;4.23;1.87;;;12.70;99.90;;;;;;4953908;28;20359;-71
2022/04/10 07:27:36;;;;;;;5.97;2.50;;;12.90;99.90;;;;;;4955058;29;20204;-70
2022/04/10 07:30:04;;;;;;;2.87;1.90;;;13.40;99.90;;;;;;4955673;29;20526;-70
2022/04/10 07:32:30;;;;;;;4.53;2.00;;;14.10;99.90;;;;;;4952441;29;20227;-68
2022/04/10 07:35:02;;;;;;;3.83;1.90;;;14.70;99.90;;;;;;4945736;29;20240;-70
2022/04/10 07:37:28;;;;;;;5.63;2.43;;;14.60;99.90;;;;;;4949405;28;20740;-69
2022/04/10 07:39:55;;;;;;;3.23;2.10;;;14.40;99.90;;;;;;4955856;28;20665;-71
2022/04/10 07:42:23;;;;;;;5.10;2.00;;;15.00;99.90;;;;;;4956764;28;20693;-71
2022/04/10 07:44:54;;;;;;;7.13;2.88;;;15.60;99.70;;;;;;4954592;28;20453;-71
2022/04/10 07:47:26;;;;;;;4.30;2.30;;;15.20;99.20;;;;;;4956172;28;20215;-71
2022/04/10 07:49:54;;;;;;;6.70;2.33;;;16.20;98.90;;;;;;4956060;29;20208;-72
2022/04/10 07:52:21;;;;;;;3.87;2.30;;;16.20;98.20;;;;;;4955727;28;20232;-69
2022/04/10 07:54:48;;;;;;;4.80;2.30;;;16.20;97.60;;;;;;4953325;29;20208;-71
2022/04/10 07:57:16;;;;;;;4.20;2.08;;;16.60;97.20;;;;;;4943320;29;20578;-70
2022/04/10 07:59:44;;;;;;;5.40;2.40;;;17.20;97.00;;;;;;4941173;29;20213;-68
2022/04/10 08:02:11;;;;;;;4.20;2.28;;;17.40;96.40;;;;;;4941249;29;20228;-70
2022/04/10 08:04:38;;;;;;;6.45;2.17;;;16.80;95.20;;;;;;4946104;29;20203;-71
2022/04/10 08:07:05;;;;;;;4.35;2.22;;;17.70;95.00;;;;;;4937302;29;20566;-71
2022/04/10 08:09:32;;;;;;;3.58;2.22;;;18.30;93.80;;;;;;4936540;29;20663;-71
2022/04/10 08:12:00;;;;;;;3.80;2.50;;;18.60;93.90;;;;;;4936844;29;20288;-69
2022/04/10 08:14:27;;;;;;;5.30;2.35;;;18.20;94.10;;;;;;4936542;29;20662;-69
2022/04/10 08:16:55;;;;;;;4.22;1.77;;;17.90;92.80;;;;;;4936219;29;20217;-69
2022/04/10 08:19:22;;;;;;;3.10;1.60;;;17.50;92.50;;;;;;4951647;29;20200;-69
2022/04/10 08:21:48;;;;;;;8.60;2.30;;;17.50;91.30;;;;;;4955185;29;20319;-71
2022/04/10 08:24:15;;;;;;;3.78;1.80;;;17.70;91.10;;;;;;4955010;29;20204;-69
2022/04/10 08:26:42;;;;;;;3.53;1.98;;;18.30;88.30;;;;;;4954807;29;20232;-71
2022/04/10 08:29:09;;;;;;;10.60;3.75;;;19.00;87.70;;;;;;4939410;29;20201;-69
2022/04/10 08:31:36;;;;;;;4.75;1.98;;;19.10;95.00;;;;;;4935947;29;20239;-69
2022/04/10 08:34:04;;;;;;;3.78;1.70;;;19.40;87.50;;;;;;4940441;29;20690;-72
2022/04/10 08:36:32;;;;;;;7.38;2.03;;;18.80;87.30;;;;;;4953839;28;20208;-69
2022/04/10 08:38:59;;;;;;;3.00;1.70;;;18.30;86.50;;;;;;4955249;29;20291;-68
2022/04/10 08:41:31;;;;;;;4.75;1.92;;;17.50;86.60;;;;;;4955481;28;20243;-68
2022/04/10 08:44:01;;;;;;;3.38;1.80;;;17.70;87.30;;;;;;4955432;28;20212;-68
2022/04/10 08:46:28;;;;;;;4.30;1.90;;;18.20;85.60;;;;;;4955225;28;20597;-71
2022/04/10 08:48:56;;;;;;;3.13;1.60;;;18.50;85.90;;;;;;4955319;28;20239;-71
2022/04/10 08:51:25;;;;;;;4.30;1.50;;;18.20;83.00;;;;;;4954545;28;20239;-69
2022/04/10 08:53:53;;;;;;;3.00;1.52;;;17.40;83.30;;;;;;4955209;28;20212;-69
2022/04/10 08:56:22;;;;;;;2.25;1.48;;;17.60;84.10;;;;;;4955238;29;20207;-69
2022/04/10 08:58:48;;;;;;;3.38;1.40;;;17.30;83.90;;;;;;4954953;29;20220;-71
2022/04/10 09:01:19;;;;;;;2.78;1.58;;;17.00;85.00;;;;;;4954858;29;20232;-68
2022/04/10 09:03:46;;;;;;;4.60;1.58;;;16.50;84.50;;;;;;4955159;29;20208;-71
2022/04/10 09:06:13;;;;;;;3.92;1.58;;;16.60;84.50;;;;;;4955076;29;20236;-72
2022/04/10 09:08:43;;;;;;;2.47;1.50;;;16.70;85.20;;;;;;4954108;29;20215;-70
2022/04/10 09:11:11;;;;;;;1.60;1.20;;;17.30;84.60;;;;;;4955033;29;20239;-71
2022/04/10 09:13:39;;;;;;;3.17;1.30;;;17.20;81.70;;;;;;4954709;29;20208;-68
2022/04/10 09:16:12;;;;;;;3.30;1.75;;;16.40;81.90;;;;;;4955219;29;20204;-69
2022/04/10 09:18:51;;;;;;;1.70;1.30;;;16.90;82.30;;;;;;4953917;29;20676;-71
2022/04/10 09:21:19;;;;;;;4.75;1.38;;;16.90;81.10;;;;;;4954494;29;20223;-71
2022/04/10 09:23:55;;;;;;;2.08;1.02;;;16.90;82.40;;;;;;4954385;29;20210;-72
2022/04/10 09:26:22;;;;;;;1.92;1.20;;;17.50;79.60;;;;;;4954469;29;20231;-71
2022/04/10 09:28:51;;;;;;;3.50;1.27;;;17.70;80.10;;;;;;4954428;29;20211;-69
2022/04/10 09:31:32;;;;;;;2.58;1.10;;;18.00;78.20;;;;;;4954294;29;20273;-68
2022/04/10 09:34:01;;;;;;;2.42;1.50;;;17.60;79.70;;;;;;4954279;29;20207;-69
2022/04/10 09:36:46;;;;;;;2.80;1.60;;;17.50;80.80;;;;;;4954620;29;20204;-68
2022/04/10 09:39:16;;;;;;;4.63;1.40;;;16.80;84.90;;;;;;4954772;29;20219;-72
2022/04/10 09:41:43;;;;;;;4.87;1.50;;;16.30;82.10;;;;;;4954806;28;20228;-69
2022/04/10 09:44:12;;;;;;;5.67;1.30;;;15.70;83.30;;;;;;4954510;28;20215;-71
2022/04/10 09:46:40;;;;;;;2.10;1.07;;;15.70;85.80;;;;;;4954477;28;20291;-68
2022/04/10 09:49:12;;;;;;;2.47;1.50;;;15.60;85.20;;;;;;4956359;28;20218;-71
2022/04/10 09:52:05;;;;;;;4.13;1.43;;;15.40;84.40;;;;;;4958070;28;20290;-68
2022/04/10 09:54:40;;;;;;;2.57;1.27;;;14.90;86.40;;;;;;4958393;28;20220;-71
2022/04/10 09:57:11;;;;;;;3.47;1.30;;;14.50;86.70;;;;;;4958874;29;20207;-71
2022/04/10 09:59:40;;;;;;;5.07;1.50;;;14.50;85.70;;;;;;4958474;29;20247;-70
2022/04/10 10:02:08;;;;;;;1.77;1.10;;;14.60;85.60;;;;;;4958295;28;20238;-70
2022/04/10 10:04:37;;;;;;;3.00;1.47;;;14.80;85.40;;;;;;4958365;29;20208;-68
2022/04/10 10:07:05;;;;;;;5.67;1.50;;;14.70;83.50;;;;;;4957676;29;20236;-68
2022/04/10 10:09:33;;;;;;;3.00;1.80;;;14.30;85.60;;;;;;4957786;28;20207;-70
2022/04/10 10:12:03;;;;;;;2.77;1.20;;;14.20;82.20;;;;;;4957810;29;20620;-69
2022/04/10 10:14:31;;;;;;;3.50;1.20;;;13.70;83.50;;;;;;4957963;29;20208;-68
2022/04/10 10:16:59;;;;;;;3.40;1.03;;;13.70;83.70;;;;;;4957336;28;20216;-68
2022/04/10 10:19:26;;;;;;;3.33;1.57;;;13.90;82.10;;;;;;4956746;29;20215;-71
2022/04/10 10:21:54;;;;;;;1.90;1.00;;;13.90;80.90;;;;;;4957436;29;20228;-68
2022/04/10 10:24:24;;;;;;;2.83;1.20;;;13.80;83.30;;;;;;4958002;29;20255;-72
2022/04/10 10:27:16;;;;;;;4.67;1.30;;;13.80;85.60;;;;;;4957212;29;20266;-71
2022/04/10 10:30:03;;;;;;;2.43;1.20;;;13.50;85.50;;;;;;4957313;29;20212;-69
2022/04/10 10:32:40;;;;;;;4.40;1.30;;;13.30;89.30;;;;;;4957216;28;20228;-69
2022/04/10 10:35:10;;;;;;;1.33;0.97;;;13.30;86.90;;;;;;4956804;29;20211;-70
2022/04/10 10:37:50;;;;;;;3.47;1.53;;;13.30;85.40;;;;;;4956817;29;20673;-71
2022/04/10 10:40:18;;;;;;;2.77;1.40;;;13.30;85.00;;;;;;4957158;28;20208;-68
2022/04/10 10:42:47;;;;;;;5.23;1.43;;;13.40;85.60;;;;;;4956798;28;20256;-71
2022/04/10 10:45:33;;;;;;;4.00;1.83;;;13.50;84.40;;;;;;4957370;28;20204;-70
2022/04/10 10:48:24;;;;;;;2.37;1.30;;;13.70;83.90;;;;;;4956417;28;20669;-68
2022/04/10 10:50:52;;;;;;;1.93;1.07;;;13.80;82.80;;;;;;4948357;28;20628;-69
2022/04/10 10:53:39;;;;;;;1.73;1.07;;;14.00;84.50;;;;;;4956719;29;20208;-69
2022/04/10 10:56:06;;;;;;;1.30;0.90;;;14.10;84.80;;;;;;4956811;29;20208;-71
2022/04/10 10:58:37;;;;;;;2.97;1.20;;;14.40;82.50;;;;;;4956594;29;20357;-69
2022/04/10 11:01:04;;;;;;;5.03;1.20;;;14.50;80.40;;;;;;4956086;28;20224;-71
2022/04/10 11:03:31;;;;;;;2.10;1.07;;;14.80;83.00;;;;;;4956659;29;20653;-71
2022/04/10 11:06:06;;;;;;;7.03;1.40;;;14.70;83.40;;;;;;4941233;29;20235;-68
2022/04/10 11:08:39;;;;;;;1.83;1.07;;;14.90;82.40;;;;;;4937251;29;20267;-69
2022/04/10 11:11:07;;;;;;;4.03;1.33;;;15.10;77.30;;;;;;4937540;29;20232;-70
2022/04/10 11:13:42;;;;;;;4.70;1.10;;;15.00;79.20;;;;;;4937396;29;20220;-69
2022/04/10 11:16:11;;;;;;;2.30;1.07;;;14.70;81.20;;;;;;4938822;29;20212;-69
2022/04/10 11:18:42;;;;;;;1.37;0.90;;;14.80;80.80;;;;;;4955618;29;20722;-69
2022/04/10 11:21:13;;;;;;;1.77;0.90;;;15.10;78.10;;;;;;4956170;29;20228;-70
2022/04/10 11:23:41;;;;;;;1.53;0.87;;;15.20;81.40;;;;;;4956402;29;20207;-68
2022/04/10 11:26:13;;;;;;;3.00;0.90;;;15.20;77.90;;;;;;4955972;29;20232;-69
2022/04/10 11:29:04;;;;;;;2.40;0.90;;;15.10;77.20;;;;;;4947201;29;20200;-70
2022/04/10 11:31:32;;;;;;;1.83;0.60;;;15.30;78.40;;;;;;4937562;28;20725;-73
2022/04/10 11:34:15;;;;;;;1.33;0.80;;;15.20;75.00;;;;;;4954017;29;20669;-68
2022/04/10 11:36:53;;;;;;;1.60;0.77;;;15.40;74.10;;;;;;4953216;28;20204;-71
2022/04/10 11:39:25;;;;;;;1.57;0.80;;;15.30;73.40;;;;;;4955339;29;20214;-73
2022/04/10 11:41:53;;;;;;;1.83;0.80;;;15.30;76.80;;;;;;4956149;28;20283;-70
2022/04/10 11:44:21;;;;;;;0.83;0.70;;;15.40;76.90;;;;;;4956181;29;20212;-73
2022/04/10 11:46:49;;;;;;;3.33;0.80;;;15.30;77.70;;;;;;4956152;29;20246;-69
2022/04/10 11:49:19;;;;;;;1.07;0.60;;;15.30;76.70;;;;;;4956099;29;20212;-71
2022/04/10 11:51:53;;;;;;;1.50;0.70;;;14.80;77.40;;;;;;4955147;28;20303;-72
2022/04/10 11:54:31;;;;;;;1.77;0.83;;;14.60;77.90;;;;;;4955107;29;20270;-72
2022/04/10 11:56:59;;;;;;;1.27;0.80;;;14.50;78.70;;;;;;4954853;29;20207;-72
2022/04/10 11:59:33;;;;;;;1.53;0.80;;;14.60;77.90;;;;;;4947121;29;20212;-73
2022/04/10 12:02:00;;;;;;;2.60;0.90;;;14.80;76.00;;;;;;4947046;29;20223;-70
2022/04/10 12:04:28;;;;;;;3.73;1.20;;;15.10;78.30;;;;;;4955565;29;20208;-74
2022/04/10 12:07:12;;;;;;;2.43;1.10;;;15.20;77.20;;;;;;4955753;28;20232;-70
2022/04/10 12:09:39;;;;;;;6.23;3.47;;;15.00;76.00;;;;;;4954500;28;20234;-71
2022/04/10 12:12:06;;;;;;;3.23;1.30;;;14.90;77.60;;;;;;4952886;28;20577;-73
2022/04/10 12:14:35;;;;;;;1.60;0.80;;;15.00;78.60;;;;;;4955433;28;20215;-73
2022/04/10 12:17:02;;;;;;;2.03;0.90;;;14.80;77.40;;;;;;4955079;28;20211;-68
2022/04/10 12:19:31;;;;;;;2.40;0.70;;;14.80;77.70;;;;;;4954333;29;20204;-74
2022/04/10 12:21:59;;;;;;;0.87;0.67;;;14.80;79.10;;;;;;4955011;29;20319;-75
2022/04/10 12:24:26;;;;;;;1.60;0.60;;;14.90;75.20;;;;;;4955314;29;20238;-72
2022/04/10 12:26:53;;;;;;;2.40;1.00;;;14.90;75.80;;;;;;4954868;29;20236;-72
2022/04/10 12:29:22;;;;;;;3.20;0.87;;;15.10;77.50;;;;;;4954914;28;20204;-75
2022/04/10 12:31:54;;;;;;;2.20;1.00;;;15.00;79.20;;;;;;4954916;29;20228;-69
2022/04/10 12:34:21;;;;;;;1.53;0.90;;;14.90;76.60;;;;;;4955091;29;20298;-74
2022/04/10 12:36:50;;;;;;;2.23;1.30;;;14.90;76.40;;;;;;4938810;29;20219;-70
2022/04/10 12:39:24;;;;;;;1.67;0.70;;;14.70;76.30;;;;;;4950041;29;20208;-71
2022/04/10 12:41:59;;;;;;;2.53;1.10;;;14.70;76.90;;;;;;4943106;29;20228;-68
2022/04/10 12:44:26;;;;;;;1.77;0.80;;;14.80;78.50;;;;;;4945540;29;20201;-71
2022/04/10 12:46:55;;;;;;;1.70;1.10;;;14.80;77.90;;;;;;4946558;29;20232;-85
2022/04/10 12:49:23;;;;;;;1.90;1.23;;;14.90;75.50;;;;;;4953468;29;20212;-82
2022/04/10 12:51:53;;;;;;;1.30;1.00;;;15.20;77.70;;;;;;4953925;29;20587;-71
2022/04/10 12:54:32;;;;;;;1.83;0.80;;;15.20;74.10;;;;;;4951837;28;20675;-73
2022/04/10 12:56:59;;;;;;;1.43;0.80;;;15.20;76.50;;;;;;4933684;29;20209;-74
2022/04/10 12:59:34;;;;;;;2.07;1.17;;;14.90;76.60;;;;;;4933992;29;20220;-70
2022/04/10 13:02:04;;;;;;;4.17;0.90;;;14.90;75.70;;;;;;4946902;29;20573;-75